Condiciones actuales en los principales Aeropuertos de España-Datos Metar

 

LEAL - Alicante
Actualización: 20/05/2018 11:30
Few Clouds
Few Clouds
 Viento del varies
Viento: varies 6 km/h
Temperatura: 21°C
Rocío: 13°C
Humedad: 60%
Barómetro: 1015 hPa
Nubosidad: Few Clouds
Visibilidad: 10 km
Cloud details: Few Clouds 610 m
2018/05/20 09:30 LEAL 200930Z VRB03KT 9999 FEW020 21/13 Q1015 NOSIG
LEAB - Albacete
Actualización: 20/05/2018 11:00
Despejado
Despejado
 Viento del NNE
Viento: NNE 9 km/h
Temperatura: 17°C
Rocío: 6°C
Humedad: 49%
Barómetro: 1016 hPa
Resumen: Despejado
Visibilidad: greater than 10 km
2018/05/20 09:00 LEAB 200900Z 02005KT 320V110 CAVOK 17/06 Q1016 NOSIG
LEAM - Almería
Actualización: 20/05/2018 11:30
Few Clouds
Few Clouds
 Viento del S
Viento: S 11 km/h
Temperatura: 19°C
Rocío: 15°C
Humedad: 78%
Barómetro: 1015 hPa
Nubosidad: Few Clouds
Visibilidad: 10 km
Cloud details: Few Clouds 305 m
2018/05/20 09:30 LEAM 200930Z 18006KT 150V210 9999 FEW010 19/15 Q1015
 
LEAS - Asturias/Aviles
Actualización: 20/05/2018 11:30
Few Clouds
Few Clouds
 Viento del ESE
Viento: ESE 13 km/h
Temperatura: 17°C
Rocío: 11°C
Humedad: 68%
Barómetro: 1017 hPa
Nubosidad: Few Clouds
Visibilidad: 10 km
Cloud details: Few Clouds 427 m
2018/05/20 09:30 LEAS 200930Z 11007KT 060V160 9999 FEW014 17/11 Q1017 TEMPO 3000 BR
LEBZ - Badajoz/Talavera la Real
Actualización: 20/05/2018 11:00
Few Clouds
Few Clouds
 Viento del varies
Viento: varies 4 km/h
Temperatura: 20°C
Rocío: 14°C
Humedad: 69%
Barómetro: 1015 hPa
Nubosidad: Few Clouds
Visibilidad: 10 km
Cloud details: Few Clouds 1219 m
2018/05/20 09:00 LEBZ 200900Z VRB02KT 9999 FEW040 20/14 Q1015
LEBL - Barcelona
Actualización: 20/05/2018 11:30
Few Clouds
Few Clouds
 Viento del SE
Viento: SE 9 km/h
Temperatura: 23°C
Rocío: 12°C
Humedad: 50%
Barómetro: 1015 hPa
Nubosidad: Few Clouds
Visibilidad: 10 km
Cloud details: Few Clouds 914 m
2018/05/20 09:30 LEBL 200930Z 13005KT 100V190 9999 FEW030 23/12 Q1015 NOSIG
 
LEBB - Bilbao
Actualización: 20/05/2018 11:30
Few Clouds
Few Clouds
 Viento del O
Viento: O 6 km/h
Temperatura: 18°C
Rocío: 12°C
Humedad: 68%
Barómetro: 1018 hPa
Nubosidad: Few Clouds
Visibilidad: 10 km
Cloud details: Few Clouds 914 m
2018/05/20 09:30 LEBB 200930Z 27003KT 180V340 9999 FEW030 18/12 Q1018 NOSIG
LEBG - Burgos/Villafría
Actualización: 20/05/2018 11:30
Few Clouds
Few Clouds
 Viento del NE
Viento: NE 24 km/h
Temperatura: 15°C
Rocío: 3°C
Humedad: 45%
Barómetro: 1017 hPa
Nubosidad: Few Clouds
Visibilidad: 10 km
Cloud details: Few Clouds 1067 m
2018/05/20 09:30 LEBG 200930Z 04013KT 010V070 9999 FEW035 15/03 Q1017
LEBA - Córdoba
Actualización: 20/05/2018 11:30
Few Clouds
Few Clouds
 Viento del varies
Viento: varies 4 km/h
Temperatura: 21°C
Rocío: 13°C
Humedad: 60%
Barómetro: 1014 hPa
Nubosidad: Few Clouds
Visibilidad: 10 km
Cloud details: Few Clouds 914 m
2018/05/20 09:30 LEBA 200930Z VRB02KT 9999 FEW030 21/13 Q1014
 
LEGE - Gerona
Actualización: 20/05/2018 11:30
Few Clouds
Few Clouds
 Viento del NE
Viento: NE 19 km/h
Temperatura: 22°C
Rocío: 13°C
Humedad: 57%
Barómetro: 1015 hPa
Nubosidad: Few Clouds
Visibilidad: 10 km
Cloud details: Few Clouds 1219 m
2018/05/20 09:30 LEGE 200930Z 05010KT 360V080 9999 FEW040 22/13 Q1015
LEGR - Granada
Actualización: 20/05/2018 11:30
Few Clouds
Few Clouds
 Viento del varies
Viento: varies 2 km/h
Temperatura: 19°C
Rocío: 12°C
Humedad: 64%
Barómetro: 1015 hPa
Nubosidad: Few Clouds
Visibilidad: 10 km
Cloud details: Few Clouds 1067 m
2018/05/20 09:30 LEGR 200930Z VRB01KT 9999 FEW035TCU 19/12 Q1015
GCHI - Hierro
Actualización: 20/05/2018 11:30
Mostly Cloudy
Mostly Cloudy
 Viento del NNE
Viento: NNE 26 km/h
Temperatura: 21°C
Rocío: 10°C
Humedad: 50%
Barómetro: 1018 hPa
Nubosidad: Mostly Cloudy
Visibilidad: 10 km
Cloud details: Mostly Cloudy 1463 m
2018/05/20 09:30 GCHI 200930Z 03014KT 9999 BKN048 21/10 Q1018
 
LEIB - Ibiza
Actualización: 20/05/2018 11:30
Few Clouds
Few Clouds
 Viento del E
Viento: E 17 km/h
Temperatura: 21°C
Rocío: 15°C
Humedad: 69%
Barómetro: 1014 hPa
Nubosidad: Few Clouds
Visibilidad: 10 km
Cloud details: Few Clouds 610 m
2018/05/20 09:30 LEIB 200930Z 08009KT 9999 FEW020 21/15 Q1014 NOSIG
LEJR - Jerez de la Frontera
Actualización: 20/05/2018 11:30
Despejado
Despejado
 Viento del OSO
Viento: OSO 6 km/h
Temperatura: 23°C
Rocío: 11°C
Humedad: 47%
Barómetro: 1014 hPa
Resumen: Despejado
Visibilidad: greater than 10 km
2018/05/20 09:30 LEJR 200930Z 24003KT 170V320 CAVOK 23/11 Q1014
LECO - A Coruña
Actualización: 20/05/2018 11:30
Despejado
Despejado
 Viento del NNE
Viento: NNE 6 km/h
Temperatura: 17°C
Rocío: 7°C
Humedad: 52%
Barómetro: 1015 hPa
Resumen: Despejado
Visibilidad: greater than 10 km
2018/05/20 09:30 LECO 200930Z 02003KT 290V080 CAVOK 17/07 Q1015 NOSIG
 
GCLA - La Palma
Actualización: 20/05/2018 11:30
Mostly Cloudy
Mostly Cloudy
 Viento del NE
Viento: NE 11 km/h
Temperatura: 20°C
Rocío: 10°C
Humedad: 53%
Barómetro: 1018 hPa
Nubosidad: Mostly Cloudy
Visibilidad: 10 km
Cloud details: Mostly Cloudy 1219 m
2018/05/20 09:30 GCLA 200930Z 04006KT 010V070 9999 BKN040 20/10 Q1018
GCRR - Lanzarote
Actualización: 20/05/2018 11:30
Mostly Cloudy
Mostly Cloudy
 Viento del NNO
Viento: NNO 22 km/h, Racha: 41 km/h
Temperatura: 20°C
Rocío: 10°C
Humedad: 53%
Barómetro: 1017 hPa
Nubosidad: Mostly Cloudy
Visibilidad: 10 km
Cloud details: Few Clouds 762 m
Mostly Cloudy 1494 m
2018/05/20 09:30 GCRR 200930Z 34012G22KT 300V010 9999 FEW025 BKN049 20/10 Q1017
GCLP - Las Palmas
Actualización: 01/01/1970 01:00
NO Actualizado
unable to load GCLP data RC=404 Not Found
unable to load GCLP data RC=404 Not Found
 
 
LELN - León
Actualización: 20/05/2018 11:00
Despejado
Despejado
 Viento del calm
Viento: Calma
Temperatura: 15°C
Rocío: 3°C
Humedad: 45%
Barómetro: 1017 hPa
Resumen: Despejado
Visibilidad: greater than 10 km
2018/05/20 09:00 LELN 200900Z 00000KT CAVOK 15/03 Q1017
LELO - Logroño
Actualización: 20/05/2018 11:00
Despejado
Despejado
 Viento del O
Viento: O 9 km/h
Temperatura: 17°C
Rocío: 7°C
Humedad: 52%
Barómetro: 1017 hPa
Resumen: Despejado
Visibilidad: greater than 10 km
2018/05/20 09:00 LELO 200900Z 28005KT 220V330 CAVOK 17/07 Q1017
LECV - Madrid/Colmenar
Actualización: 20/05/2018 11:00
Few Clouds
Few Clouds
 Viento del varies
Viento: varies 4 km/h
Temperatura: 17°C
Rocío: 6°C
Humedad: 49%
Barómetro: 1017 hPa
Nubosidad: Few Clouds
Visibilidad: 10 km
Cloud details: Few Clouds 1372 m
2018/05/20 09:00 LECV 200900Z VRB02KT 9999 FEW045 17/06 Q1017
 
LEMD - Madrid/Barajas
Actualización: 20/05/2018 11:30
Partly Cloudy
Partly Cloudy
 Viento del SSE
Viento: SSE 7 km/h
Temperatura: 19°C
Rocío: 9°C
Humedad: 52%
Barómetro: 1016 hPa
Nubosidad: Partly Cloudy
Visibilidad: 10 km
Cloud details: Few Clouds 1829 m
Partly Cloudy 2438 m
2018/05/20 09:30 LEMD 200930Z 16004KT 100V240 9999 FEW060 SCT080 19/09 Q1016 BECMG 15010KT
LEVS - Madrid/Cuatro Vientos
Actualización: 20/05/2018 11:30
Few Clouds
Few Clouds
 Viento del varies
Viento: varies 4 km/h
Temperatura: 19°C
Rocío: 9°C
Humedad: 52%
Barómetro: 1016 hPa
Nubosidad: Few Clouds
Visibilidad: 10 km
Cloud details: Few Clouds 1219 m
2018/05/20 09:30 LEVS 200930Z VRB02KT 9999 FEW040 19/09 Q1016
LEGT - Madrid/Getafe
Actualización: 20/05/2018 11:00
Few Clouds
Few Clouds
 Viento del NE
Viento: NE 6 km/h
Temperatura: 18°C
Rocío: 11°C
Humedad: 64%
Barómetro: 1016 hPa
Nubosidad: Few Clouds
Visibilidad: 10 km
Cloud details: Few Clouds 1372 m
2018/05/20 09:00 LEGT 200900Z 05003KT 9999 FEW045 18/11 Q1016
 
LETO - Madrid/Torrejón
Actualización: 20/05/2018 11:00
Despejado
Despejado
 Viento del E
Viento: E 4 km/h
Temperatura: 18°C
Rocío: 9°C
Humedad: 56%
Barómetro: 1016 hPa
Resumen: Despejado
Visibilidad: greater than 10 km
2018/05/20 09:00 LETO 200900Z 09002KT CAVOK 18/09 Q1016 NOSIG
LEMG - Málaga
Actualización: 20/05/2018 11:30
Partly Cloudy
Partly Cloudy
 Viento del SE
Viento: SE 9 km/h
Temperatura: 21°C
Rocío: 13°C
Humedad: 60%
Barómetro: 1015 hPa
Nubosidad: Partly Cloudy
Visibilidad: 10 km
Cloud details: Few Clouds 914 m
Partly Cloudy 2438 m
2018/05/20 09:30 LEMG 200930Z 13005KT 100V210 9999 FEW030 SCT080 21/13 Q1015 NOSIG
GEML - Melilla
Actualización: 20/05/2018 11:30
Few Clouds
Few Clouds
 Viento del ESE
Viento: ESE 11 km/h
Temperatura: 21°C
Rocío: 13°C
Humedad: 60%
Barómetro: 1015 hPa
Nubosidad: Few Clouds
Visibilidad: 10 km
Cloud details: Few Clouds 305 m
2018/05/20 09:30 GEML 200930Z 12006KT 060V170 9999 FEW010 21/13 Q1015
 
LEMH - Mahón
Actualización: 20/05/2018 11:30
Few Clouds
Few Clouds
 Viento del varies
Viento: varies 4 km/h
Temperatura: 21°C
Rocío: 12°C
Humedad: 57%
Barómetro: 1014 hPa
Nubosidad: Few Clouds
Visibilidad: 10 km
Cloud details: Few Clouds 549 m
2018/05/20 09:30 LEMH 200930Z VRB02KT 9999 FEW018 21/12 Q1014
LEMO - Morón de La Frontera
Actualización: 20/05/2018 11:00
Despejado
Despejado
 Viento del varies
Viento: varies 4 km/h
Temperatura: 20°C
Rocío: 13°C
Humedad: 64%
Barómetro: 1014 hPa
Resumen: Despejado
Visibilidad: greater than 10 km
2018/05/20 09:00 LEMO 200900Z VRB02KT CAVOK 20/13 Q1014 NOSIG
LERI - Murcia/Alcantarilla
Actualización: 20/05/2018 11:00
Few Clouds
Few Clouds
 Viento del varies
Viento: varies 6 km/h
Temperatura: 21°C
Rocío: 10°C
Humedad: 50%
Barómetro: 1015 hPa
Nubosidad: Few Clouds
Visibilidad: 10 km
Cloud details: Few Clouds 1829 m
2018/05/20 09:00 LERI 200900Z VRB03KT 9999 FEW060 21/10 Q1015 NOSIG
 
LELC - Murcia/San Javier
Actualización: 20/05/2018 11:00
Few Clouds
Few Clouds
 Viento del ENE
Viento: ENE 9 km/h
Temperatura: 20°C
Rocío: 14°C
Humedad: 69%
Barómetro: 1015 hPa
Nubosidad: Few Clouds
Visibilidad: 10 km
Cloud details: Few Clouds 1311 m
2018/05/20 09:00 LELC 200900Z 06005KT 360V120 9999 FEW043 20/14 Q1015 NOSIG
LEPA - Palma de Mallorca
Actualización: 20/05/2018 11:30
Few Clouds
Few Clouds
 Viento del varies
Viento: varies 6 km/h
Temperatura: 21°C
Rocío: 15°C
Humedad: 69%
Barómetro: 1014 hPa
Nubosidad: Few Clouds
Visibilidad: 10 km
Cloud details: Few Clouds 914 m
2018/05/20 09:30 LEPA 200930Z VRB03KT 9999 FEW030 21/15 Q1014 NOSIG
LEPP - Pamplona
Actualización: 20/05/2018 11:30
Few Clouds
Few Clouds
 Viento del O
Viento: O 4 km/h
Temperatura: 17°C
Rocío: 9°C
Humedad: 59%
Barómetro: 1017 hPa
Nubosidad: Few Clouds
Visibilidad: 10 km
Cloud details: Few Clouds 1707 m
2018/05/20 09:30 LEPP 200930Z 26002KT 9999 FEW056 17/09 Q1017
 
LERS - Reus
Actualización: 20/05/2018 11:30
Few Clouds
Few Clouds
 Viento del SE
Viento: SE 17 km/h
Temperatura: 24°C
Rocío: 12°C
Humedad: 47%
Barómetro: 1015 hPa
Nubosidad: Few Clouds
Visibilidad: 10 km
Cloud details: Few Clouds 1524 m
2018/05/20 09:30 LERS 200930Z 13009KT 090V190 9999 FEW050CB 24/12 Q1015
LERT - Rota
Actualización: 20/05/2018 11:00
Despejado
Despejado
 Viento del varies
Viento: varies 6 km/h
Temperatura: 23°C
Rocío: 13°C
Humedad: 53%
Barómetro: 1014 hPa
Resumen: Despejado
Visibilidad: greater than 10 km
2018/05/20 09:00 LERT 200900Z VRB03KT CAVOK 23/13 Q1014 NOSIG
LELL - Sabadell
Actualización: 01/01/1970 01:00
NO Actualizado
unable to load LELL data RC=404 Not Found
unable to load LELL data RC=404 Not Found
 
 
LESA - Salamanca
Actualización: 20/05/2018 11:30
Few Clouds
Few Clouds
 Viento del NO
Viento: NO 2 km/h
Temperatura: 18°C
Rocío: 10°C
Humedad: 60%
Barómetro: 1016 hPa
Nubosidad: Few Clouds
Visibilidad: 10 km
Cloud details: Few Clouds 1463 m
2018/05/20 09:30 LESA 200930Z 32001KT 9999 FEW048TCU 18/10 Q1016
LESO - San Sebastián
Actualización: 20/05/2018 11:30
Despejado
Despejado
 Viento del NE
Viento: NE 6 km/h
Temperatura: 19°C
Rocío: 12°C
Humedad: 64%
Barómetro: 1017 hPa
Resumen: Despejado
Visibilidad: greater than 10 km
2018/05/20 09:30 LESO 200930Z 04003KT 330V100 CAVOK 19/12 Q1017
LEXJ - Santander
Actualización: 20/05/2018 11:30
Few Clouds
Few Clouds
 Viento del ENE
Viento: ENE 7 km/h
Temperatura: 18°C
Rocío: 14°C
Humedad: 78%
Barómetro: 1018 hPa
Nubosidad: Few Clouds
Visibilidad: 10 km
Cloud details: Few Clouds 671 m
2018/05/20 09:30 LEXJ 200930Z 06004KT 020V100 9999 FEW022 18/14 Q1018
 
LEPA - Palma de Mallorca
Actualización: 20/05/2018 11:30
Few Clouds
Few Clouds
 Viento del varies
Viento: varies 6 km/h
Temperatura: 21°C
Rocío: 15°C
Humedad: 69%
Barómetro: 1014 hPa
Nubosidad: Few Clouds
Visibilidad: 10 km
Cloud details: Few Clouds 914 m
2018/05/20 09:30 LEPA 200930Z VRB03KT 9999 FEW030 21/15 Q1014 NOSIG
LEPP - Pamplona
Actualización: 20/05/2018 11:30
Few Clouds
Few Clouds
 Viento del O
Viento: O 4 km/h
Temperatura: 17°C
Rocío: 9°C
Humedad: 59%
Barómetro: 1017 hPa
Nubosidad: Few Clouds
Visibilidad: 10 km
Cloud details: Few Clouds 1707 m
2018/05/20 09:30 LEPP 200930Z 26002KT 9999 FEW056 17/09 Q1017
LEST - Santiago de Compostela
Actualización: 20/05/2018 11:30
Despejado
Despejado
 Viento del E
Viento: E 9 km/h
Temperatura: 18°C
Rocío: 11°C
Humedad: 64%
Barómetro: 1015 hPa
Resumen: Despejado
Visibilidad: greater than 10 km
2018/05/20 09:30 LEST 200930Z 10005KT 020V170 CAVOK 18/11 Q1015 NOSIG
 
LEZL - Sevilla
Actualización: 20/05/2018 11:30
Despejado
Despejado
 Viento del ESE
Viento: ESE 4 km/h
Temperatura: 21°C
Rocío: 15°C
Humedad: 69%
Barómetro: 1014 hPa
Resumen: Despejado
Visibilidad: greater than 10 km
2018/05/20 09:30 LEZL 200930Z 12002KT CAVOK 21/15 Q1014 NOSIG
GCXO - Tenerife
Actualización: 20/05/2018 11:30
Mostly Cloudy
Mostly Cloudy
 Viento del NO
Viento: NO 24 km/h
Temperatura: 14°C
Rocío: 12°C
Humedad: 88%
Barómetro: 1019 hPa
Nubosidad: Mostly Cloudy
Visibilidad: 10 km
Cloud details: Partly Cloudy 213 m
Mostly Cloudy 610 m
2018/05/20 09:30 GCXO 200930Z 32013KT 280V350 9999 SCT007 BKN020 14/12 Q1019 BECMG BKN015
GCTS - Tenerife-Sur
Actualización: 20/05/2018 11:30
Few Clouds
Few Clouds
 Viento del SO
Viento: SO 11 km/h
Temperatura: 20°C
Rocío: 11°C
Humedad: 56%
Barómetro: 1017 hPa
Nubosidad: Few Clouds
Visibilidad: 10 km
Cloud details: Few Clouds 1219 m
2018/05/20 09:30 GCTS 200930Z 22006KT 160V250 9999 FEW040 20/11 Q1017 NOSIG
 
LEVC - Valencia
Actualización: 20/05/2018 11:30
Few Clouds
Few Clouds
 Viento del E
Viento: E 13 km/h
Temperatura: 23°C
Rocío: 9°C
Humedad: 41%
Barómetro: 1015 hPa
Nubosidad: Few Clouds
Visibilidad: 10 km
Cloud details: Few Clouds 1067 m
2018/05/20 09:30 LEVC 200930Z 08007KT 040V130 9999 FEW035 23/09 Q1015 NOSIG
LEVD - Valladolid
Actualización: 20/05/2018 11:30
Despejado
Despejado
 Viento del ENE
Viento: ENE 17 km/h
Temperatura: 15°C
Rocío: 8°C
Humedad: 63%
Barómetro: 1016 hPa
Resumen: Despejado
Visibilidad: greater than 10 km
2018/05/20 09:30 LEVD 200930Z 07009KT 030V100 CAVOK 15/08 Q1016
LEVX - Vigo
Actualización: 20/05/2018 11:30
Despejado
Despejado
 Viento del S
Viento: S 11 km/h
Temperatura: 20°C
Rocío: 12°C
Humedad: 60%
Barómetro: 1014 hPa
Resumen: Despejado
Visibilidad: greater than 10 km
2018/05/20 09:30 LEVX 200930Z 19006KT 150V230 CAVOK 20/12 Q1014 NOSIG
 
LEVT - Vitoria
Actualización: 20/05/2018 11:30
Few Clouds
Few Clouds
 Viento del varies
Viento: varies 6 km/h
Temperatura: 14°C
Rocío: 10°C
Humedad: 77%
Barómetro: 1018 hPa
Nubosidad: Few Clouds
Visibilidad: 9 km
Cloud details: Few Clouds 305 m
2018/05/20 09:30 LEVT 200930Z VRB03KT 9000 FEW010 14/10 Q1018
LEZG - Zaragoza
Actualización: 20/05/2018 11:30
Few Clouds
Few Clouds
 Viento del O
Viento: O 7 km/h
Temperatura: 19°C
Rocío: 12°C
Humedad: 64%
Barómetro: 1016 hPa
Nubosidad: Few Clouds
Visibilidad: 10 km
Cloud details: Few Clouds 1219 m
2018/05/20 09:30 LEZG 200930Z 28004KT 230V320 9999 FEW040 19/12 Q1016

La estación de MeteoMurcia.com, publica sus datos en los siguientes proyectos:

Meteoclimatic www.awekas.at

W3Counter
Web Analytics